DLH594 EDDF-DNAA
Flight info
| Callsign | DLH594 |
|---|---|
| Flight time | 5h 29m |
| Altitude | 39000 |
| Route | ANEKI2L/18 ANEKI Y163 NATOR DCT TRA DCT RIPUS DCT GERSA DCT SOSON DCT ODINA DCT PIDAD DCT TALEP DCT VAREK DCT ERPIN DCT ETOIL DCT CIRTA UA605 CSO UR978 AS UA604 KAN/N0461F400 UR778 KUA UV456 OXORU OXORU1N |
| Aircraft | A333/H-SDE3GHIJ2J3J5M1RVWXY/LB2D1 |
Departure
| Time | 2026-05-05 17:19 |
|---|---|
| Airport | Frankfurt Main Airport (EDDF) |
Arrival
| Time | 2026-05-05 22:48 |
|---|---|
| Airport | Nnamdi Azikiwe International Airport (DNAA) |
| Time | Latitude | Longitude | Altitude | Speed | Heading |
|---|---|---|---|---|---|
| 2026-05-05 16:26 | 50.04653 | 8.57056 | 360 ft | 0 kts | 91° |
| 2026-05-05 16:58 | 50.04653 | 8.57055 | 360 ft | 1 kts | 91° |
| 2026-05-05 16:58 | 50.04653 | 8.57017 | 362 ft | 4 kts | 91° |
| 2026-05-05 16:58 | 50.04653 | 8.56982 | 365 ft | 4 kts | 101° |
| 2026-05-05 16:58 | 50.04663 | 8.56953 | 366 ft | 4 kts | 165° |
| 2026-05-05 16:59 | 50.04686 | 8.56958 | 368 ft | 4 kts | 204° |
| 2026-05-05 16:59 | 50.04711 | 8.56975 | 363 ft | 4 kts | 204° |
| 2026-05-05 16:59 | 50.04735 | 8.56992 | 362 ft | 4 kts | 204° |
| 2026-05-05 16:59 | 50.04760 | 8.57009 | 367 ft | 4 kts | 204° |
| 2026-05-05 17:00 | 50.04778 | 8.57022 | 360 ft | 0 kts | 204° |
| 2026-05-05 17:08 | 50.04773 | 8.57018 | 368 ft | 2 kts | 204° |
| 2026-05-05 17:08 | 50.04753 | 8.57004 | 362 ft | 4 kts | 204° |
| 2026-05-05 17:09 | 50.04721 | 8.56982 | 368 ft | 6 kts | 204° |
| 2026-05-05 17:09 | 50.04677 | 8.56951 | 366 ft | 8 kts | 204° |
| 2026-05-05 17:09 | 50.04622 | 8.56917 | 364 ft | 9 kts | 196° |
| 2026-05-05 17:09 | 50.04561 | 8.56894 | 368 ft | 8 kts | 193° |
| 2026-05-05 17:10 | 50.04507 | 8.56875 | 365 ft | 9 kts | 193° |
| 2026-05-05 17:10 | 50.04454 | 8.56832 | 370 ft | 9 kts | 234° |
| 2026-05-05 17:10 | 50.04429 | 8.56732 | 368 ft | 11 kts | 249° |
| 2026-05-05 17:10 | 50.04398 | 8.56607 | 367 ft | 13 kts | 250° |
| 2026-05-05 17:11 | 50.04364 | 8.56463 | 368 ft | 15 kts | 250° |
| 2026-05-05 17:11 | 50.04326 | 8.56303 | 365 ft | 16 kts | 249° |
| 2026-05-05 17:11 | 50.04285 | 8.56128 | 362 ft | 18 kts | 249° |
| 2026-05-05 17:11 | 50.04240 | 8.55942 | 364 ft | 19 kts | 249° |
| 2026-05-05 17:12 | 50.04193 | 8.55746 | 365 ft | 20 kts | 250° |
| 2026-05-05 17:12 | 50.04144 | 8.55542 | 363 ft | 21 kts | 250° |
| 2026-05-05 17:12 | 50.04093 | 8.55329 | 365 ft | 21 kts | 249° |
| 2026-05-05 17:12 | 50.04044 | 8.55122 | 361 ft | 20 kts | 249° |
| 2026-05-05 17:13 | 50.03994 | 8.54916 | 362 ft | 21 kts | 249° |
| 2026-05-05 17:13 | 50.03941 | 8.54693 | 358 ft | 23 kts | 250° |
| 2026-05-05 17:13 | 50.03890 | 8.54480 | 358 ft | 21 kts | 250° |
| 2026-05-05 17:13 | 50.03821 | 8.54279 | 359 ft | 21 kts | 238° |
| 2026-05-05 17:14 | 50.03764 | 8.54073 | 358 ft | 21 kts | 249° |
| 2026-05-05 17:14 | 50.03712 | 8.53854 | 353 ft | 22 kts | 250° |
| 2026-05-05 17:14 | 50.03657 | 8.53629 | 353 ft | 23 kts | 249° |
| 2026-05-05 17:14 | 50.03600 | 8.53400 | 355 ft | 23 kts | 250° |
| 2026-05-05 17:15 | 50.03555 | 8.53210 | 347 ft | 17 kts | 250° |
| 2026-05-05 17:15 | 50.03519 | 8.53059 | 353 ft | 13 kts | 249° |
| 2026-05-05 17:15 | 50.03489 | 8.52937 | 336 ft | 10 kts | 249° |
| 2026-05-05 17:15 | 50.03459 | 8.52829 | 336 ft | 12 kts | 246° |
| 2026-05-05 17:16 | 50.03436 | 8.52740 | 334 ft | 7 kts | 249° |
| 2026-05-05 17:16 | 50.03415 | 8.52656 | 336 ft | 9 kts | 248° |
| 2026-05-05 17:16 | 50.03390 | 8.52598 | 335 ft | 5 kts | 211° |
| 2026-05-05 17:16 | 50.03359 | 8.52594 | 335 ft | 0 kts | 180° |
| 2026-05-05 17:18 | 50.03358 | 8.52594 | 335 ft | 3 kts | 180° |
| 2026-05-05 17:18 | 50.03151 | 8.52596 | 337 ft | 61 kts | 180° |
| 2026-05-05 17:19 | 50.02521 | 8.52600 | 337 ft | 117 kts | 179° |
| 2026-05-05 17:19 | 50.01551 | 8.52607 | 335 ft | 164 kts | 180° |
| 2026-05-05 17:19 | 50.00332 | 8.52628 | 799 ft | 177 kts | 179° |
| 2026-05-05 17:19 | 49.99117 | 8.52677 | 1658 ft | 173 kts | 179° |
| 2026-05-05 17:20 | 49.97905 | 8.52791 | 2356 ft | 179 kts | 178° |
| 2026-05-05 17:20 | 49.96591 | 8.52967 | 2725 ft | 203 kts | 176° |
| 2026-05-05 17:20 | 49.95093 | 8.53160 | 3097 ft | 228 kts | 178° |
| 2026-05-05 17:20 | 49.93471 | 8.53263 | 3800 ft | 234 kts | 180° |
| 2026-05-05 17:21 | 49.91848 | 8.53325 | 4683 ft | 233 kts | 180° |
| 2026-05-05 17:21 | 49.90226 | 8.53376 | 5599 ft | 232 kts | 180° |
| 2026-05-05 17:21 | 49.88612 | 8.53434 | 6505 ft | 231 kts | 179° |
| 2026-05-05 17:22 | 49.85405 | 8.53583 | 8254 ft | 232 kts | 180° |
| 2026-05-05 17:22 | 49.83772 | 8.53674 | 9037 ft | 237 kts | 180° |
| 2026-05-05 17:22 | 49.82115 | 8.53791 | 9827 ft | 240 kts | 179° |
| 2026-05-05 17:22 | 49.80439 | 8.53937 | 10536 ft | 243 kts | 179° |
| 2026-05-05 17:23 | 49.78737 | 8.54114 | 11214 ft | 247 kts | 180° |
| 2026-05-05 17:23 | 49.77012 | 8.54034 | 11795 ft | 254 kts | 186° |
| 2026-05-05 17:23 | 49.75197 | 8.53811 | 12178 ft | 269 kts | 187° |
| 2026-05-05 17:23 | 49.73282 | 8.53530 | 12564 ft | 285 kts | 188° |
| 2026-05-05 17:24 | 49.71251 | 8.53215 | 12899 ft | 301 kts | 188° |
| 2026-05-05 17:24 | 49.69109 | 8.52901 | 13269 ft | 317 kts | 187° |
| 2026-05-05 17:24 | 49.66862 | 8.52615 | 13632 ft | 332 kts | 186° |
| 2026-05-05 17:24 | 49.64506 | 8.52336 | 13940 ft | 346 kts | 186° |
| 2026-05-05 17:25 | 49.62055 | 8.52066 | 14278 ft | 360 kts | 186° |
| 2026-05-05 17:25 | 49.60359 | 8.51882 | 14599 ft | 364 kts | 186° |
| 2026-05-05 17:25 | 49.56985 | 8.51485 | 15421 ft | 369 kts | 186° |
| 2026-05-05 17:25 | 49.54421 | 8.51142 | 16128 ft | 370 kts | 186° |
| 2026-05-05 17:26 | 49.51853 | 8.50766 | 16836 ft | 371 kts | 186° |
| 2026-05-05 17:26 | 49.49276 | 8.50383 | 17503 ft | 373 kts | 186° |
| 2026-05-05 17:26 | 49.46675 | 8.50021 | 18142 ft | 376 kts | 185° |
| 2026-05-05 17:26 | 49.44062 | 8.49685 | 18670 ft | 379 kts | 185° |
| 2026-05-05 17:27 | 49.41417 | 8.49375 | 19200 ft | 382 kts | 185° |
| 2026-05-05 17:27 | 49.38758 | 8.49072 | 19708 ft | 385 kts | 185° |
| 2026-05-05 17:27 | 49.37966 | 8.48978 | 19862 ft | 386 kts | 185° |
| 2026-05-05 17:28 | 49.35330 | 8.48653 | 20345 ft | 389 kts | 185° |
| 2026-05-05 17:28 | 49.32620 | 8.48300 | 20815 ft | 393 kts | 185° |
| 2026-05-05 17:28 | 49.29887 | 8.47922 | 21284 ft | 396 kts | 185° |
| 2026-05-05 17:28 | 49.27126 | 8.47521 | 21783 ft | 399 kts | 185° |
| 2026-05-05 17:29 | 49.24349 | 8.47131 | 22217 ft | 403 kts | 185° |
| 2026-05-05 17:29 | 49.21542 | 8.46757 | 22661 ft | 406 kts | 185° |
| 2026-05-05 17:29 | 49.18716 | 8.46391 | 23100 ft | 410 kts | 185° |
| 2026-05-05 17:29 | 49.15863 | 8.46025 | 23510 ft | 413 kts | 185° |
| 2026-05-05 17:30 | 49.12991 | 8.45658 | 23905 ft | 415 kts | 185° |
| 2026-05-05 17:30 | 49.10109 | 8.45287 | 24314 ft | 417 kts | 185° |
| 2026-05-05 17:30 | 49.07213 | 8.44843 | 24712 ft | 419 kts | 188° |
| 2026-05-05 17:30 | 49.04337 | 8.44047 | 25106 ft | 421 kts | 191° |
| 2026-05-05 17:31 | 49.01459 | 8.43135 | 25494 ft | 423 kts | 192° |
| 2026-05-05 17:31 | 48.98573 | 8.42158 | 25887 ft | 426 kts | 192° |
| 2026-05-05 17:31 | 48.95699 | 8.41152 | 26285 ft | 427 kts | 192° |
| 2026-05-05 17:31 | 48.92779 | 8.40119 | 26665 ft | 429 kts | 192° |
| 2026-05-05 17:32 | 48.89864 | 8.39090 | 27034 ft | 432 kts | 192° |
| 2026-05-05 17:32 | 48.86931 | 8.38060 | 27386 ft | 434 kts | 192° |
| 2026-05-05 17:32 | 48.83975 | 8.37029 | 27747 ft | 436 kts | 192° |
| 2026-05-05 17:32 | 48.81009 | 8.36000 | 28112 ft | 439 kts | 192° |
| 2026-05-05 17:33 | 48.78028 | 8.34960 | 28464 ft | 441 kts | 192° |
| 2026-05-05 17:33 | 48.75035 | 8.33886 | 28866 ft | 442 kts | 193° |
| 2026-05-05 17:33 | 48.72042 | 8.32794 | 29272 ft | 444 kts | 193° |
| 2026-05-05 17:33 | 48.69038 | 8.31691 | 29604 ft | 446 kts | 193° |
| 2026-05-05 17:34 | 48.66013 | 8.30581 | 29923 ft | 449 kts | 193° |
| 2026-05-05 17:34 | 48.62967 | 8.29465 | 30221 ft | 451 kts | 193° |
| 2026-05-05 17:34 | 48.59914 | 8.28351 | 30509 ft | 453 kts | 193° |
| 2026-05-05 17:34 | 48.56849 | 8.27235 | 30810 ft | 454 kts | 193° |
| 2026-05-05 17:35 | 48.53779 | 8.26123 | 31232 ft | 452 kts | 192° |
| 2026-05-05 17:35 | 48.50693 | 8.25314 | 31683 ft | 450 kts | 185° |
| 2026-05-05 17:35 | 48.47576 | 8.25116 | 32113 ft | 448 kts | 178° |
| 2026-05-05 17:35 | 48.44472 | 8.25522 | 32517 ft | 447 kts | 173° |
| 2026-05-05 17:36 | 48.41434 | 8.26142 | 32877 ft | 446 kts | 171° |
| 2026-05-05 17:36 | 48.38333 | 8.26881 | 33286 ft | 445 kts | 171° |
| 2026-05-05 17:36 | 48.35282 | 8.27655 | 33690 ft | 444 kts | 170° |
| 2026-05-05 17:36 | 48.32237 | 8.28436 | 33978 ft | 444 kts | 171° |
| 2026-05-05 17:37 | 48.29227 | 8.29199 | 34234 ft | 444 kts | 171° |
| 2026-05-05 17:37 | 48.27165 | 8.29714 | 34419 ft | 444 kts | 171° |
| 2026-05-05 17:37 | 48.23130 | 8.30705 | 34792 ft | 444 kts | 172° |
| 2026-05-05 17:37 | 48.20083 | 8.31444 | 35049 ft | 443 kts | 172° |
| 2026-05-05 17:38 | 48.17040 | 8.32176 | 35321 ft | 443 kts | 172° |
| 2026-05-05 17:38 | 48.14004 | 8.32908 | 35574 ft | 443 kts | 172° |
| 2026-05-05 17:38 | 48.10967 | 8.33642 | 35835 ft | 443 kts | 172° |
| 2026-05-05 17:38 | 48.07922 | 8.34379 | 36079 ft | 443 kts | 172° |
| 2026-05-05 17:39 | 48.04879 | 8.35115 | 36322 ft | 443 kts | 172° |
| 2026-05-05 17:39 | 48.01837 | 8.35852 | 36558 ft | 443 kts | 172° |
| 2026-05-05 17:39 | 47.98794 | 8.36587 | 36796 ft | 443 kts | 172° |
| 2026-05-05 17:39 | 47.95749 | 8.37323 | 37025 ft | 443 kts | 172° |
| 2026-05-05 17:40 | 47.92710 | 8.38055 | 37249 ft | 443 kts | 173° |
| 2026-05-05 17:40 | 47.89663 | 8.38788 | 37486 ft | 443 kts | 173° |
| 2026-05-05 17:40 | 47.86625 | 8.39518 | 37686 ft | 443 kts | 173° |
| 2026-05-05 17:40 | 47.83533 | 8.40260 | 37893 ft | 443 kts | 173° |
| 2026-05-05 17:41 | 47.80532 | 8.40978 | 38109 ft | 443 kts | 173° |
| 2026-05-05 17:41 | 47.77482 | 8.41708 | 38309 ft | 444 kts | 173° |
| 2026-05-05 17:41 | 47.74435 | 8.42436 | 38522 ft | 444 kts | 173° |
| 2026-05-05 17:41 | 47.71393 | 8.43162 | 38653 ft | 444 kts | 173° |
| 2026-05-05 17:42 | 47.68333 | 8.43857 | 38804 ft | 444 kts | 175° |
| 2026-05-05 17:42 | 47.62196 | 8.44872 | 38878 ft | 443 kts | 176° |
| 2026-05-05 17:43 | 47.56066 | 8.45709 | 38882 ft | 442 kts | 177° |
| 2026-05-05 17:43 | 47.49939 | 8.46559 | 38884 ft | 442 kts | 176° |
| 2026-05-05 17:44 | 47.44812 | 8.47298 | 38885 ft | 442 kts | 177° |
| 2026-05-05 17:44 | 47.38690 | 8.48195 | 38885 ft | 442 kts | 177° |
| 2026-05-05 17:45 | 47.32583 | 8.49090 | 38881 ft | 441 kts | 177° |
| 2026-05-05 17:45 | 47.26468 | 8.49983 | 38880 ft | 441 kts | 177° |
| 2026-05-05 17:46 | 47.20388 | 8.50868 | 38885 ft | 443 kts | 177° |
| 2026-05-05 17:46 | 47.14276 | 8.51758 | 38894 ft | 442 kts | 177° |
| 2026-05-05 17:47 | 47.08127 | 8.52650 | 38893 ft | 444 kts | 177° |
| 2026-05-05 17:47 | 47.01983 | 8.53540 | 38894 ft | 443 kts | 178° |
| 2026-05-05 17:48 | 46.95832 | 8.54427 | 38905 ft | 444 kts | 177° |
| 2026-05-05 17:48 | 46.89681 | 8.55311 | 38923 ft | 444 kts | 177° |
| 2026-05-05 17:49 | 46.83527 | 8.56197 | 38916 ft | 444 kts | 178° |
| 2026-05-05 17:49 | 46.77394 | 8.57078 | 38923 ft | 442 kts | 178° |
| 2026-05-05 17:50 | 46.71274 | 8.57953 | 38953 ft | 442 kts | 178° |
| 2026-05-05 17:50 | 46.65159 | 8.58826 | 38957 ft | 442 kts | 178° |
| 2026-05-05 17:51 | 46.59037 | 8.59696 | 38966 ft | 442 kts | 178° |
| 2026-05-05 17:51 | 46.52920 | 8.60563 | 38969 ft | 442 kts | 178° |
| 2026-05-05 17:52 | 46.46797 | 8.61430 | 38976 ft | 442 kts | 178° |
| 2026-05-05 17:52 | 46.40681 | 8.62295 | 38980 ft | 442 kts | 178° |
| 2026-05-05 17:53 | 46.34564 | 8.63157 | 38989 ft | 442 kts | 178° |
| 2026-05-05 17:53 | 46.28447 | 8.64017 | 38991 ft | 442 kts | 178° |
| 2026-05-05 17:54 | 46.22333 | 8.64875 | 38993 ft | 441 kts | 178° |
| 2026-05-05 17:54 | 46.16219 | 8.65730 | 38995 ft | 442 kts | 178° |
| 2026-05-05 17:55 | 46.10095 | 8.66551 | 38993 ft | 441 kts | 180° |
| 2026-05-05 17:55 | 46.03966 | 8.66837 | 38989 ft | 440 kts | 183° |
| 2026-05-05 17:56 | 45.97857 | 8.66876 | 38990 ft | 438 kts | 184° |
| 2026-05-05 17:56 | 45.91771 | 8.66928 | 38990 ft | 437 kts | 183° |
| 2026-05-05 17:57 | 45.85698 | 8.67026 | 38991 ft | 437 kts | 183° |
| 2026-05-05 17:57 | 45.79620 | 8.67146 | 38992 ft | 436 kts | 183° |
| 2026-05-05 17:58 | 45.73577 | 8.67270 | 38976 ft | 434 kts | 183° |
| 2026-05-05 17:58 | 45.67582 | 8.67388 | 38965 ft | 433 kts | 183° |
| 2026-05-05 17:59 | 45.61554 | 8.67506 | 38967 ft | 433 kts | 183° |
| 2026-05-05 17:59 | 45.55532 | 8.67624 | 38962 ft | 432 kts | 183° |
| 2026-05-05 18:00 | 45.49469 | 8.67743 | 38965 ft | 432 kts | 183° |
| 2026-05-05 18:00 | 45.43496 | 8.67859 | 38980 ft | 432 kts | 183° |
| 2026-05-05 18:01 | 45.37489 | 8.67977 | 38995 ft | 432 kts | 184° |
| 2026-05-05 18:01 | 45.31478 | 8.68092 | 38992 ft | 432 kts | 183° |
| 2026-05-05 18:02 | 45.25466 | 8.68209 | 38996 ft | 432 kts | 183° |
| 2026-05-05 18:02 | 45.19447 | 8.68325 | 38986 ft | 433 kts | 184° |
| 2026-05-05 18:03 | 45.13421 | 8.68441 | 38966 ft | 434 kts | 184° |
| 2026-05-05 18:03 | 45.07380 | 8.68557 | 38966 ft | 434 kts | 184° |
| 2026-05-05 18:04 | 45.01345 | 8.68673 | 38967 ft | 434 kts | 184° |
| 2026-05-05 18:04 | 44.95295 | 8.68788 | 38960 ft | 435 kts | 184° |
| 2026-05-05 18:05 | 44.89234 | 8.68905 | 38955 ft | 436 kts | 184° |
| 2026-05-05 18:05 | 44.83169 | 8.69022 | 38950 ft | 436 kts | 184° |
| 2026-05-05 18:06 | 44.77095 | 8.69137 | 38958 ft | 437 kts | 184° |
| 2026-05-05 18:06 | 44.71014 | 8.69253 | 38960 ft | 437 kts | 184° |
| 2026-05-05 18:07 | 44.64929 | 8.69369 | 38955 ft | 437 kts | 184° |
| 2026-05-05 18:07 | 44.58839 | 8.69484 | 38963 ft | 438 kts | 184° |
| 2026-05-05 18:08 | 44.52745 | 8.69598 | 38962 ft | 438 kts | 184° |
| 2026-05-05 18:08 | 44.46699 | 8.69713 | 38967 ft | 437 kts | 184° |
| 2026-05-05 18:09 | 44.40607 | 8.69827 | 38964 ft | 438 kts | 184° |
| 2026-05-05 18:09 | 44.34512 | 8.69941 | 38964 ft | 438 kts | 184° |
| 2026-05-05 18:10 | 44.28415 | 8.70054 | 38950 ft | 438 kts | 184° |
| 2026-05-05 18:10 | 44.22320 | 8.70168 | 38949 ft | 438 kts | 184° |
| 2026-05-05 18:11 | 44.16224 | 8.70283 | 38946 ft | 438 kts | 184° |
| 2026-05-05 18:11 | 44.10129 | 8.70396 | 38947 ft | 438 kts | 184° |
| 2026-05-05 18:12 | 44.04035 | 8.70509 | 38948 ft | 438 kts | 185° |
| 2026-05-05 18:12 | 43.97952 | 8.70622 | 38953 ft | 437 kts | 185° |
| 2026-05-05 18:13 | 43.91867 | 8.70733 | 38945 ft | 437 kts | 185° |
| 2026-05-05 18:13 | 43.85788 | 8.70845 | 38948 ft | 437 kts | 185° |
| 2026-05-05 18:14 | 43.79718 | 8.70958 | 38948 ft | 436 kts | 185° |
| 2026-05-05 18:14 | 43.73685 | 8.71069 | 38948 ft | 436 kts | 185° |
| 2026-05-05 18:15 | 43.67621 | 8.71180 | 38932 ft | 436 kts | 185° |
| 2026-05-05 18:15 | 43.61574 | 8.71279 | 38945 ft | 434 kts | 185° |
| 2026-05-05 18:16 | 43.55546 | 8.71293 | 38951 ft | 433 kts | 186° |
| 2026-05-05 18:16 | 43.49521 | 8.71278 | 38929 ft | 433 kts | 186° |
| 2026-05-05 18:17 | 43.43549 | 8.70894 | 38947 ft | 424 kts | 195° |
| 2026-05-05 18:17 | 43.37992 | 8.68619 | 38952 ft | 413 kts | 207° |
| 2026-05-05 18:18 | 43.32789 | 8.65287 | 38947 ft | 412 kts | 210° |
| 2026-05-05 18:18 | 43.27666 | 8.61781 | 38938 ft | 411 kts | 211° |
| 2026-05-05 18:19 | 43.22565 | 8.58300 | 38945 ft | 409 kts | 210° |
| 2026-05-05 18:19 | 43.17465 | 8.54865 | 38945 ft | 408 kts | 210° |
| 2026-05-05 18:20 | 43.12356 | 8.51449 | 38941 ft | 408 kts | 210° |
| 2026-05-05 18:20 | 43.07252 | 8.48045 | 38939 ft | 407 kts | 210° |
| 2026-05-05 18:21 | 43.02160 | 8.44656 | 38939 ft | 406 kts | 210° |
| 2026-05-05 18:21 | 42.97081 | 8.41280 | 38940 ft | 406 kts | 210° |
| 2026-05-05 18:22 | 42.91997 | 8.37907 | 38919 ft | 406 kts | 210° |
| 2026-05-05 18:22 | 42.86914 | 8.34541 | 38932 ft | 406 kts | 210° |
| 2026-05-05 18:23 | 42.81837 | 8.31184 | 38934 ft | 406 kts | 210° |
| 2026-05-05 18:23 | 42.76760 | 8.27833 | 38933 ft | 406 kts | 210° |
| 2026-05-05 18:24 | 42.71680 | 8.24487 | 38914 ft | 406 kts | 210° |
| 2026-05-05 18:24 | 42.66613 | 8.21156 | 38926 ft | 403 kts | 210° |
| 2026-05-05 18:25 | 42.61569 | 8.17847 | 38929 ft | 402 kts | 210° |
| 2026-05-05 18:25 | 42.56527 | 8.14544 | 38946 ft | 402 kts | 210° |
| 2026-05-05 18:26 | 42.51483 | 8.11245 | 38942 ft | 402 kts | 210° |
| 2026-05-05 18:26 | 42.46475 | 8.07975 | 38926 ft | 402 kts | 210° |
| 2026-05-05 18:27 | 42.41431 | 8.04689 | 38946 ft | 402 kts | 210° |
| 2026-05-05 18:27 | 42.36381 | 8.01406 | 38944 ft | 402 kts | 210° |
| 2026-05-05 18:28 | 42.28758 | 7.96615 | 38954 ft | 404 kts | 207° |
| 2026-05-05 18:28 | 42.23555 | 7.93744 | 38950 ft | 404 kts | 206° |
| 2026-05-05 18:29 | 42.19219 | 7.91408 | 38949 ft | 404 kts | 206° |
| 2026-05-05 18:29 | 42.14008 | 7.88581 | 38934 ft | 404 kts | 207° |
| 2026-05-05 18:30 | 42.08807 | 7.85736 | 38937 ft | 403 kts | 207° |
| 2026-05-05 18:30 | 42.03611 | 7.82889 | 38939 ft | 403 kts | 207° |
| 2026-05-05 18:31 | 41.98417 | 7.80048 | 38937 ft | 403 kts | 207° |
| 2026-05-05 18:31 | 41.93218 | 7.77210 | 38920 ft | 403 kts | 207° |
| 2026-05-05 18:32 | 41.88009 | 7.74371 | 38932 ft | 405 kts | 207° |
| 2026-05-05 18:32 | 41.82787 | 7.71531 | 38936 ft | 405 kts | 207° |
| 2026-05-05 18:33 | 41.77556 | 7.68692 | 38935 ft | 406 kts | 207° |
| 2026-05-05 18:33 | 41.72322 | 7.65857 | 38924 ft | 406 kts | 207° |
| 2026-05-05 18:34 | 41.67080 | 7.63023 | 38940 ft | 407 kts | 207° |
| 2026-05-05 18:34 | 41.61868 | 7.60209 | 38940 ft | 407 kts | 207° |
| 2026-05-05 18:35 | 41.56514 | 7.57701 | 38943 ft | 412 kts | 199° |
| 2026-05-05 18:35 | 41.50882 | 7.56183 | 38922 ft | 413 kts | 196° |
| 2026-05-05 18:36 | 41.45209 | 7.54882 | 38936 ft | 415 kts | 195° |
| 2026-05-05 18:36 | 41.39512 | 7.53609 | 38932 ft | 415 kts | 195° |
| 2026-05-05 18:37 | 41.33819 | 7.52322 | 38942 ft | 415 kts | 195° |
| 2026-05-05 18:37 | 41.28129 | 7.51022 | 38937 ft | 415 kts | 195° |
| 2026-05-05 18:38 | 41.22430 | 7.49717 | 38939 ft | 416 kts | 195° |
| 2026-05-05 18:38 | 41.16727 | 7.48415 | 38939 ft | 416 kts | 195° |
| 2026-05-05 18:39 | 41.11020 | 7.47114 | 38936 ft | 416 kts | 195° |
| 2026-05-05 18:39 | 41.05310 | 7.45815 | 38935 ft | 416 kts | 195° |
| 2026-05-05 18:40 | 40.99596 | 7.44518 | 38939 ft | 417 kts | 195° |
| 2026-05-05 18:40 | 40.93880 | 7.43223 | 38938 ft | 417 kts | 195° |
| 2026-05-05 18:41 | 40.88166 | 7.41930 | 38923 ft | 417 kts | 195° |
| 2026-05-05 18:41 | 40.82464 | 7.40639 | 38940 ft | 420 kts | 195° |
| 2026-05-05 18:42 | 40.76703 | 7.39340 | 38939 ft | 420 kts | 195° |
| 2026-05-05 18:42 | 40.70939 | 7.38044 | 38938 ft | 420 kts | 195° |
| 2026-05-05 18:43 | 40.65169 | 7.36749 | 38925 ft | 421 kts | 195° |
| 2026-05-05 18:43 | 40.59384 | 7.35450 | 38934 ft | 423 kts | 195° |
| 2026-05-05 18:44 | 40.53583 | 7.34151 | 38937 ft | 423 kts | 195° |
| 2026-05-05 18:44 | 40.47780 | 7.32854 | 38938 ft | 423 kts | 195° |
| 2026-05-05 18:45 | 40.41980 | 7.31561 | 38933 ft | 423 kts | 195° |
| 2026-05-05 18:45 | 40.36181 | 7.30271 | 38932 ft | 423 kts | 195° |
| 2026-05-05 18:46 | 40.30378 | 7.28981 | 38937 ft | 423 kts | 195° |
| 2026-05-05 18:46 | 40.24576 | 7.27693 | 38910 ft | 423 kts | 195° |
| 2026-05-05 18:47 | 40.18766 | 7.26405 | 38939 ft | 423 kts | 195° |
| 2026-05-05 18:47 | 40.12957 | 7.25121 | 38930 ft | 424 kts | 195° |
| 2026-05-05 18:48 | 40.07141 | 7.23837 | 38936 ft | 424 kts | 195° |
| 2026-05-05 18:48 | 40.01330 | 7.22556 | 38933 ft | 424 kts | 195° |
| 2026-05-05 18:49 | 39.95511 | 7.21276 | 38938 ft | 424 kts | 195° |
| 2026-05-05 18:49 | 39.89698 | 7.19997 | 38939 ft | 424 kts | 195° |
| 2026-05-05 18:50 | 39.83914 | 7.18729 | 38938 ft | 424 kts | 195° |
| 2026-05-05 18:50 | 39.78038 | 7.17444 | 38931 ft | 426 kts | 195° |
| 2026-05-05 18:51 | 39.72171 | 7.16183 | 38942 ft | 429 kts | 194° |
| 2026-05-05 18:51 | 39.66296 | 7.15095 | 38941 ft | 429 kts | 193° |
| 2026-05-05 18:52 | 39.60374 | 7.14063 | 38938 ft | 430 kts | 193° |
| 2026-05-05 18:52 | 39.54455 | 7.13025 | 38937 ft | 430 kts | 193° |
| 2026-05-05 18:53 | 39.48529 | 7.11973 | 38943 ft | 430 kts | 193° |
| 2026-05-05 18:53 | 39.42609 | 7.10918 | 38943 ft | 429 kts | 193° |
| 2026-05-05 18:54 | 39.36690 | 7.09863 | 38943 ft | 430 kts | 193° |
| 2026-05-05 18:54 | 39.30760 | 7.08809 | 38947 ft | 432 kts | 193° |
| 2026-05-05 18:55 | 39.24751 | 7.07740 | 38952 ft | 440 kts | 193° |
| 2026-05-05 18:55 | 39.18627 | 7.06656 | 38951 ft | 448 kts | 192° |
| 2026-05-05 18:56 | 39.12454 | 7.05570 | 38943 ft | 447 kts | 192° |
| 2026-05-05 18:56 | 39.06280 | 7.04486 | 38951 ft | 448 kts | 192° |
| 2026-05-05 18:57 | 39.00102 | 7.03402 | 38955 ft | 448 kts | 192° |
| 2026-05-05 18:57 | 38.93918 | 7.02373 | 38955 ft | 449 kts | 192° |
| 2026-05-05 18:58 | 38.87719 | 7.01374 | 38957 ft | 449 kts | 192° |
| 2026-05-05 18:58 | 38.81512 | 7.00375 | 38962 ft | 450 kts | 192° |
| 2026-05-05 18:59 | 38.75335 | 6.99377 | 38959 ft | 450 kts | 192° |
| 2026-05-05 18:59 | 38.69121 | 6.98373 | 38955 ft | 450 kts | 192° |
| 2026-05-05 19:00 | 38.62859 | 6.97362 | 38958 ft | 451 kts | 192° |
| 2026-05-05 19:00 | 38.56634 | 6.96358 | 38965 ft | 451 kts | 192° |
| 2026-05-05 19:01 | 38.50441 | 6.95362 | 38956 ft | 452 kts | 192° |
| 2026-05-05 19:01 | 38.44204 | 6.94361 | 38942 ft | 452 kts | 192° |
| 2026-05-05 19:02 | 38.37958 | 6.93359 | 38962 ft | 453 kts | 192° |
| 2026-05-05 19:02 | 38.31701 | 6.92358 | 38963 ft | 453 kts | 192° |
| 2026-05-05 19:03 | 38.25443 | 6.91359 | 38967 ft | 453 kts | 192° |
| 2026-05-05 19:03 | 38.19184 | 6.90361 | 38967 ft | 453 kts | 192° |
| 2026-05-05 19:04 | 38.12922 | 6.89364 | 38964 ft | 453 kts | 192° |
| 2026-05-05 19:04 | 38.06664 | 6.88370 | 38966 ft | 453 kts | 192° |
| 2026-05-05 19:05 | 38.00406 | 6.87378 | 38965 ft | 453 kts | 192° |
| 2026-05-05 19:05 | 37.94143 | 6.86386 | 38965 ft | 454 kts | 192° |
| 2026-05-05 19:06 | 37.87879 | 6.85396 | 38966 ft | 454 kts | 192° |
| 2026-05-05 19:06 | 37.81603 | 6.84406 | 38966 ft | 454 kts | 192° |
| 2026-05-05 19:07 | 37.75378 | 6.83427 | 38945 ft | 453 kts | 192° |
| 2026-05-05 19:07 | 37.69077 | 6.82436 | 38963 ft | 453 kts | 192° |
| 2026-05-05 19:08 | 37.62856 | 6.81459 | 38963 ft | 454 kts | 192° |
| 2026-05-05 19:08 | 37.56592 | 6.80477 | 38963 ft | 454 kts | 192° |
| 2026-05-05 19:09 | 37.50327 | 6.79496 | 38955 ft | 454 kts | 192° |
| 2026-05-05 19:09 | 37.44052 | 6.78515 | 38966 ft | 454 kts | 192° |
| 2026-05-05 19:10 | 37.37779 | 6.77537 | 38965 ft | 454 kts | 192° |
| 2026-05-05 19:10 | 37.31502 | 6.76560 | 38971 ft | 454 kts | 192° |
| 2026-05-05 19:11 | 37.25223 | 6.75584 | 38962 ft | 455 kts | 192° |
| 2026-05-05 19:11 | 37.18937 | 6.74608 | 38969 ft | 456 kts | 192° |
| 2026-05-05 19:12 | 37.12642 | 6.73634 | 38971 ft | 456 kts | 192° |
| 2026-05-05 19:12 | 37.06347 | 6.72660 | 38970 ft | 456 kts | 192° |
| 2026-05-05 19:13 | 37.00050 | 6.71689 | 38972 ft | 456 kts | 192° |
| 2026-05-05 19:13 | 36.93747 | 6.70717 | 38973 ft | 456 kts | 192° |
| 2026-05-05 19:14 | 36.87444 | 6.69747 | 38978 ft | 457 kts | 192° |
| 2026-05-05 19:14 | 36.81138 | 6.68778 | 38975 ft | 457 kts | 192° |
| 2026-05-05 19:15 | 36.74821 | 6.67809 | 38976 ft | 458 kts | 192° |
| 2026-05-05 19:15 | 36.68486 | 6.66841 | 38988 ft | 459 kts | 192° |
| 2026-05-05 19:16 | 36.62152 | 6.65874 | 38989 ft | 459 kts | 192° |
| 2026-05-05 19:16 | 36.55814 | 6.64907 | 38980 ft | 459 kts | 192° |
| 2026-05-05 19:17 | 36.49473 | 6.63941 | 39003 ft | 460 kts | 192° |
| 2026-05-05 19:17 | 36.43117 | 6.62971 | 39016 ft | 460 kts | 192° |
| 2026-05-05 19:18 | 36.36799 | 6.62011 | 39021 ft | 460 kts | 192° |
| 2026-05-05 19:18 | 36.30432 | 6.61111 | 39003 ft | 463 kts | 188° |
| 2026-05-05 19:19 | 36.23941 | 6.61186 | 39020 ft | 468 kts | 183° |
| 2026-05-05 19:19 | 36.18480 | 6.61503 | 39018 ft | 470 kts | 182° |
| 2026-05-05 19:20 | 36.11953 | 6.61948 | 39009 ft | 470 kts | 182° |
| 2026-05-05 19:20 | 36.05421 | 6.62386 | 38986 ft | 470 kts | 182° |
| 2026-05-05 19:21 | 35.98888 | 6.62806 | 38983 ft | 471 kts | 182° |
| 2026-05-05 19:21 | 35.92340 | 6.63218 | 38974 ft | 471 kts | 182° |
| 2026-05-05 19:22 | 35.85791 | 6.63629 | 38972 ft | 471 kts | 182° |
| 2026-05-05 19:22 | 35.79235 | 6.64040 | 38974 ft | 471 kts | 182° |
| 2026-05-05 19:23 | 35.72684 | 6.64450 | 38976 ft | 471 kts | 182° |
| 2026-05-05 19:23 | 35.66178 | 6.64858 | 38975 ft | 471 kts | 182° |
| 2026-05-05 19:24 | 35.59586 | 6.65269 | 38976 ft | 471 kts | 182° |
| 2026-05-05 19:24 | 35.53079 | 6.65674 | 38968 ft | 472 kts | 182° |
| 2026-05-05 19:25 | 35.46505 | 6.66082 | 38974 ft | 474 kts | 182° |
| 2026-05-05 19:25 | 35.39918 | 6.66491 | 38973 ft | 474 kts | 182° |
| 2026-05-05 19:26 | 35.33335 | 6.66900 | 38974 ft | 474 kts | 182° |
| 2026-05-05 19:26 | 35.26755 | 6.67306 | 38978 ft | 473 kts | 182° |
| 2026-05-05 19:27 | 35.20174 | 6.67712 | 38972 ft | 474 kts | 182° |
| 2026-05-05 19:27 | 35.13578 | 6.68121 | 38959 ft | 475 kts | 182° |
| 2026-05-05 19:28 | 35.06985 | 6.68528 | 38961 ft | 475 kts | 182° |
| 2026-05-05 19:28 | 35.00388 | 6.68934 | 38935 ft | 475 kts | 183° |
| 2026-05-05 19:29 | 34.93786 | 6.69340 | 38917 ft | 475 kts | 182° |
| 2026-05-05 19:29 | 34.87188 | 6.69744 | 38915 ft | 475 kts | 182° |
| 2026-05-05 19:30 | 34.80579 | 6.70149 | 38871 ft | 475 kts | 182° |
| 2026-05-05 19:30 | 34.73979 | 6.70558 | 38873 ft | 475 kts | 183° |
| 2026-05-05 19:31 | 34.67371 | 6.70970 | 38873 ft | 475 kts | 183° |
| 2026-05-05 19:31 | 34.60759 | 6.71381 | 38852 ft | 475 kts | 183° |
| 2026-05-05 19:32 | 34.54156 | 6.71791 | 38816 ft | 475 kts | 183° |
| 2026-05-05 19:32 | 34.47537 | 6.72201 | 38834 ft | 477 kts | 183° |
| 2026-05-05 19:33 | 34.40913 | 6.72610 | 38832 ft | 477 kts | 183° |
| 2026-05-05 19:33 | 34.34283 | 6.73020 | 38826 ft | 477 kts | 183° |
| 2026-05-05 19:34 | 34.27695 | 6.73427 | 38808 ft | 477 kts | 183° |
| 2026-05-05 19:35 | 34.17731 | 6.74039 | 38824 ft | 478 kts | 184° |
| 2026-05-05 19:35 | 34.11079 | 6.74448 | 38823 ft | 479 kts | 183° |
| 2026-05-05 19:36 | 34.04427 | 6.74856 | 38823 ft | 479 kts | 184° |
| 2026-05-05 19:36 | 33.97775 | 6.75263 | 38820 ft | 479 kts | 184° |
| 2026-05-05 19:37 | 33.91106 | 6.75670 | 38816 ft | 480 kts | 184° |
| 2026-05-05 19:37 | 33.84432 | 6.76078 | 38816 ft | 480 kts | 184° |
| 2026-05-05 19:38 | 33.77757 | 6.76485 | 38820 ft | 480 kts | 184° |
| 2026-05-05 19:38 | 33.71084 | 6.76892 | 38789 ft | 481 kts | 185° |
| 2026-05-05 19:39 | 33.64402 | 6.77298 | 38780 ft | 481 kts | 185° |
| 2026-05-05 19:39 | 33.57718 | 6.77703 | 38774 ft | 481 kts | 185° |
| 2026-05-05 19:40 | 33.51034 | 6.78099 | 38774 ft | 480 kts | 186° |
| 2026-05-05 19:40 | 33.44377 | 6.78265 | 38775 ft | 478 kts | 188° |
| 2026-05-05 19:41 | 33.37724 | 6.78304 | 38782 ft | 478 kts | 188° |
| 2026-05-05 19:41 | 33.31076 | 6.78346 | 38788 ft | 478 kts | 188° |
| 2026-05-05 19:42 | 33.24470 | 6.78411 | 38794 ft | 478 kts | 188° |
| 2026-05-05 19:42 | 33.17813 | 6.78486 | 38798 ft | 478 kts | 188° |
| 2026-05-05 19:43 | 33.11157 | 6.78564 | 38798 ft | 478 kts | 188° |
| 2026-05-05 19:43 | 33.04506 | 6.78641 | 38793 ft | 478 kts | 188° |
| 2026-05-05 19:44 | 32.97849 | 6.78717 | 38795 ft | 478 kts | 188° |
| 2026-05-05 19:44 | 32.91195 | 6.78792 | 38786 ft | 479 kts | 189° |
| 2026-05-05 19:45 | 32.84517 | 6.78867 | 38782 ft | 480 kts | 188° |
| 2026-05-05 19:45 | 32.77843 | 6.78943 | 38783 ft | 480 kts | 188° |
| 2026-05-05 19:46 | 32.71167 | 6.79019 | 38775 ft | 480 kts | 188° |
| 2026-05-05 19:46 | 32.64487 | 6.79095 | 38769 ft | 480 kts | 189° |
| 2026-05-05 19:47 | 32.57804 | 6.79170 | 38773 ft | 480 kts | 189° |
| 2026-05-05 19:47 | 32.51120 | 6.79246 | 38769 ft | 480 kts | 189° |
| 2026-05-05 19:48 | 32.44437 | 6.79322 | 38775 ft | 480 kts | 189° |
| 2026-05-05 19:48 | 32.37756 | 6.79397 | 38767 ft | 481 kts | 189° |
| 2026-05-05 19:49 | 32.31066 | 6.79472 | 38763 ft | 481 kts | 189° |
| 2026-05-05 19:49 | 32.24375 | 6.79547 | 38763 ft | 481 kts | 189° |
| 2026-05-05 19:50 | 32.17727 | 6.79623 | 38766 ft | 481 kts | 189° |
| 2026-05-05 19:50 | 32.11035 | 6.79698 | 38757 ft | 481 kts | 190° |
| 2026-05-05 19:51 | 32.04343 | 6.79772 | 38759 ft | 481 kts | 190° |
| 2026-05-05 19:51 | 31.97648 | 6.79847 | 38762 ft | 481 kts | 190° |
| 2026-05-05 19:52 | 31.90946 | 6.79921 | 38760 ft | 481 kts | 190° |
| 2026-05-05 19:52 | 31.84256 | 6.79996 | 38756 ft | 481 kts | 190° |
| 2026-05-05 19:53 | 31.77566 | 6.80070 | 38760 ft | 480 kts | 190° |
| 2026-05-05 19:53 | 31.70881 | 6.80144 | 38757 ft | 480 kts | 190° |
| 2026-05-05 19:54 | 31.64199 | 6.80217 | 38756 ft | 480 kts | 190° |
| 2026-05-05 19:54 | 31.57515 | 6.80290 | 38752 ft | 481 kts | 190° |
| 2026-05-05 19:55 | 31.50824 | 6.80364 | 38753 ft | 481 kts | 190° |
| 2026-05-05 19:55 | 31.44127 | 6.80437 | 38744 ft | 481 kts | 190° |
| 2026-05-05 19:56 | 31.37440 | 6.80512 | 38744 ft | 481 kts | 190° |
| 2026-05-05 19:56 | 31.30746 | 6.80586 | 38738 ft | 481 kts | 190° |
| 2026-05-05 19:57 | 31.24050 | 6.80659 | 38742 ft | 481 kts | 190° |
| 2026-05-05 19:57 | 31.17351 | 6.80732 | 38738 ft | 481 kts | 190° |
| 2026-05-05 19:58 | 31.10703 | 6.80806 | 38734 ft | 481 kts | 190° |
| 2026-05-05 19:58 | 31.04005 | 6.80879 | 38733 ft | 481 kts | 190° |
| 2026-05-05 19:59 | 30.97252 | 6.80952 | 38733 ft | 483 kts | 190° |
| 2026-05-05 19:59 | 30.90579 | 6.81024 | 38734 ft | 483 kts | 190° |
| 2026-05-05 20:00 | 30.83862 | 6.81097 | 38734 ft | 483 kts | 190° |
| 2026-05-05 20:00 | 30.77143 | 6.81171 | 38695 ft | 483 kts | 189° |
| 2026-05-05 20:01 | 30.70430 | 6.81244 | 38731 ft | 483 kts | 189° |
| 2026-05-05 20:01 | 30.63711 | 6.81317 | 38730 ft | 483 kts | 189° |
| 2026-05-05 20:02 | 30.56992 | 6.81389 | 38731 ft | 483 kts | 189° |
| 2026-05-05 20:02 | 30.50278 | 6.81461 | 38730 ft | 483 kts | 189° |
| 2026-05-05 20:03 | 30.43566 | 6.81533 | 38733 ft | 483 kts | 189° |
| 2026-05-05 20:03 | 30.36850 | 6.81606 | 38733 ft | 482 kts | 189° |
| 2026-05-05 20:04 | 30.30135 | 6.81678 | 38730 ft | 482 kts | 189° |
| 2026-05-05 20:04 | 30.23426 | 6.81749 | 38729 ft | 482 kts | 189° |
| 2026-05-05 20:05 | 30.16714 | 6.81821 | 38724 ft | 482 kts | 189° |
| 2026-05-05 20:05 | 30.10006 | 6.81894 | 38730 ft | 482 kts | 189° |
| 2026-05-05 20:06 | 30.03348 | 6.81966 | 38729 ft | 482 kts | 189° |
| 2026-05-05 20:06 | 29.97734 | 6.82026 | 38739 ft | 482 kts | 189° |
| 2026-05-05 20:07 | 29.89942 | 6.82109 | 38722 ft | 482 kts | 189° |
| 2026-05-05 20:07 | 29.83240 | 6.82181 | 38731 ft | 482 kts | 189° |
| 2026-05-05 20:08 | 29.77623 | 6.82241 | 38735 ft | 482 kts | 189° |
| 2026-05-05 20:08 | 29.70925 | 6.82311 | 38735 ft | 481 kts | 189° |
| 2026-05-05 20:09 | 29.64266 | 6.82382 | 38711 ft | 482 kts | 189° |
| 2026-05-05 20:09 | 29.57521 | 6.82454 | 38735 ft | 481 kts | 189° |
| 2026-05-05 20:10 | 29.50872 | 6.82525 | 38743 ft | 481 kts | 189° |
| 2026-05-05 20:10 | 29.44186 | 6.82596 | 38741 ft | 481 kts | 189° |
| 2026-05-05 20:11 | 29.37498 | 6.82665 | 38742 ft | 481 kts | 189° |
| 2026-05-05 20:11 | 29.30809 | 6.82735 | 38743 ft | 481 kts | 189° |
| 2026-05-05 20:12 | 29.24120 | 6.82806 | 38747 ft | 481 kts | 189° |
| 2026-05-05 20:12 | 29.17428 | 6.82877 | 38754 ft | 481 kts | 189° |
| 2026-05-05 20:13 | 29.10742 | 6.82947 | 38751 ft | 481 kts | 189° |
| 2026-05-05 20:13 | 29.04048 | 6.83017 | 38747 ft | 482 kts | 189° |
| 2026-05-05 20:14 | 28.97335 | 6.83086 | 38756 ft | 483 kts | 189° |
| 2026-05-05 20:14 | 28.90617 | 6.83156 | 38755 ft | 482 kts | 189° |
| 2026-05-05 20:15 | 28.83901 | 6.83227 | 38763 ft | 483 kts | 189° |
| 2026-05-05 20:15 | 28.77189 | 6.83298 | 38745 ft | 483 kts | 189° |
| 2026-05-05 20:16 | 28.70475 | 6.83369 | 38763 ft | 482 kts | 189° |
| 2026-05-05 20:16 | 28.63772 | 6.83439 | 38763 ft | 481 kts | 189° |
| 2026-05-05 20:17 | 28.57075 | 6.83507 | 38775 ft | 481 kts | 189° |
| 2026-05-05 20:17 | 28.50371 | 6.83575 | 38773 ft | 481 kts | 189° |
| 2026-05-05 20:18 | 28.43719 | 6.83644 | 38779 ft | 481 kts | 189° |
| 2026-05-05 20:18 | 28.37026 | 6.83715 | 38781 ft | 481 kts | 189° |
| 2026-05-05 20:19 | 28.30341 | 6.83784 | 38780 ft | 481 kts | 189° |
| 2026-05-05 20:19 | 28.23652 | 6.83853 | 38782 ft | 481 kts | 189° |
| 2026-05-05 20:20 | 28.16969 | 6.83921 | 38774 ft | 480 kts | 188° |
| 2026-05-05 20:20 | 28.10254 | 6.84309 | 38778 ft | 485 kts | 184° |
| 2026-05-05 20:21 | 28.03507 | 6.85012 | 38790 ft | 489 kts | 183° |
| 2026-05-05 20:21 | 27.96721 | 6.85777 | 38792 ft | 490 kts | 183° |
| 2026-05-05 20:22 | 27.89937 | 6.86544 | 38793 ft | 490 kts | 183° |
| 2026-05-05 20:22 | 27.83157 | 6.87301 | 38796 ft | 489 kts | 183° |
| 2026-05-05 20:23 | 27.76395 | 6.88049 | 38795 ft | 488 kts | 183° |
| 2026-05-05 20:23 | 27.69634 | 6.88793 | 38797 ft | 488 kts | 183° |
| 2026-05-05 20:24 | 27.62873 | 6.89537 | 38797 ft | 488 kts | 183° |
| 2026-05-05 20:24 | 27.56118 | 6.90280 | 38797 ft | 488 kts | 183° |
| 2026-05-05 20:25 | 27.49402 | 6.91019 | 38804 ft | 488 kts | 183° |
| 2026-05-05 20:25 | 27.42647 | 6.91759 | 38801 ft | 488 kts | 183° |
| 2026-05-05 20:26 | 27.35890 | 6.92500 | 38804 ft | 488 kts | 183° |
| 2026-05-05 20:26 | 27.29127 | 6.93240 | 38794 ft | 488 kts | 183° |
| 2026-05-05 20:27 | 27.22377 | 6.93979 | 38806 ft | 487 kts | 183° |
| 2026-05-05 20:27 | 27.15633 | 6.94715 | 38808 ft | 487 kts | 183° |
| 2026-05-05 20:28 | 27.08887 | 6.95451 | 38825 ft | 487 kts | 183° |
| 2026-05-05 20:28 | 27.02145 | 6.96185 | 38827 ft | 487 kts | 183° |
| 2026-05-05 20:29 | 26.95397 | 6.96920 | 38819 ft | 487 kts | 183° |
| 2026-05-05 20:29 | 26.88646 | 6.97649 | 38822 ft | 489 kts | 183° |
| 2026-05-05 20:30 | 26.81866 | 6.98395 | 38835 ft | 490 kts | 183° |
| 2026-05-05 20:30 | 26.75098 | 6.99133 | 38832 ft | 487 kts | 183° |
| 2026-05-05 20:31 | 26.68361 | 6.99862 | 38814 ft | 486 kts | 183° |
| 2026-05-05 20:31 | 26.61620 | 7.00587 | 38830 ft | 487 kts | 183° |
| 2026-05-05 20:32 | 26.54868 | 7.01311 | 38850 ft | 488 kts | 182° |
| 2026-05-05 20:32 | 26.48114 | 7.02033 | 38838 ft | 488 kts | 182° |
| 2026-05-05 20:33 | 26.41350 | 7.02765 | 38850 ft | 488 kts | 182° |
| 2026-05-05 20:33 | 26.34590 | 7.03496 | 38849 ft | 488 kts | 182° |
| 2026-05-05 20:34 | 26.27841 | 7.04224 | 38867 ft | 487 kts | 182° |
| 2026-05-05 20:34 | 26.21086 | 7.04950 | 38868 ft | 487 kts | 182° |
| 2026-05-05 20:35 | 26.14337 | 7.05673 | 38881 ft | 487 kts | 182° |
| 2026-05-05 20:35 | 26.07628 | 7.06391 | 38869 ft | 487 kts | 182° |
| 2026-05-05 20:36 | 26.00875 | 7.07114 | 38899 ft | 488 kts | 182° |
| 2026-05-05 20:36 | 25.94119 | 7.07847 | 38912 ft | 487 kts | 182° |
| 2026-05-05 20:37 | 25.87386 | 7.08583 | 38914 ft | 486 kts | 182° |
| 2026-05-05 20:37 | 25.80638 | 7.09316 | 38927 ft | 488 kts | 182° |
| 2026-05-05 20:38 | 25.73874 | 7.10053 | 38923 ft | 490 kts | 182° |
| 2026-05-05 20:38 | 25.67069 | 7.10792 | 38930 ft | 492 kts | 182° |
| 2026-05-05 20:39 | 25.60256 | 7.11533 | 38934 ft | 492 kts | 182° |
| 2026-05-05 20:39 | 25.53439 | 7.12275 | 38940 ft | 492 kts | 182° |
| 2026-05-05 20:40 | 25.46627 | 7.13014 | 38925 ft | 492 kts | 182° |
| 2026-05-05 20:40 | 25.39799 | 7.13750 | 38937 ft | 494 kts | 182° |
| 2026-05-05 20:41 | 25.32960 | 7.14488 | 38947 ft | 494 kts | 182° |
| 2026-05-05 20:41 | 25.26107 | 7.15230 | 38950 ft | 494 kts | 182° |
| 2026-05-05 20:42 | 25.19260 | 7.15969 | 38941 ft | 494 kts | 182° |
| 2026-05-05 20:42 | 25.12411 | 7.16706 | 38939 ft | 495 kts | 181° |
| 2026-05-05 20:43 | 25.05559 | 7.17443 | 38944 ft | 495 kts | 181° |
| 2026-05-05 20:43 | 24.98704 | 7.18180 | 38944 ft | 495 kts | 181° |
| 2026-05-05 20:44 | 24.91854 | 7.18919 | 38938 ft | 494 kts | 181° |
| 2026-05-05 20:44 | 24.85010 | 7.19655 | 38938 ft | 495 kts | 181° |
| 2026-05-05 20:45 | 24.74718 | 7.20759 | 38937 ft | 496 kts | 181° |
| 2026-05-05 20:45 | 24.67844 | 7.21497 | 38936 ft | 496 kts | 181° |
| 2026-05-05 20:46 | 24.61012 | 7.22229 | 38940 ft | 497 kts | 181° |
| 2026-05-05 20:46 | 24.54135 | 7.22966 | 38938 ft | 497 kts | 181° |
| 2026-05-05 20:47 | 24.47258 | 7.23702 | 38939 ft | 497 kts | 181° |
| 2026-05-05 20:47 | 24.40376 | 7.24438 | 38941 ft | 497 kts | 181° |
| 2026-05-05 20:48 | 24.33501 | 7.25172 | 38945 ft | 497 kts | 181° |
| 2026-05-05 20:48 | 24.26621 | 7.25906 | 38946 ft | 497 kts | 181° |
| 2026-05-05 20:49 | 24.19739 | 7.26641 | 38931 ft | 497 kts | 181° |
| 2026-05-05 20:49 | 24.12854 | 7.27373 | 38948 ft | 497 kts | 181° |
| 2026-05-05 20:50 | 24.07137 | 7.27979 | 38950 ft | 497 kts | 181° |
| 2026-05-05 20:50 | 23.99099 | 7.28832 | 38954 ft | 496 kts | 181° |
| 2026-05-05 20:51 | 23.92225 | 7.29562 | 38935 ft | 496 kts | 181° |
| 2026-05-05 20:51 | 23.85347 | 7.30290 | 38939 ft | 496 kts | 181° |
| 2026-05-05 20:52 | 23.78474 | 7.31017 | 38932 ft | 496 kts | 181° |
| 2026-05-05 20:52 | 23.71601 | 7.31743 | 38933 ft | 496 kts | 181° |
| 2026-05-05 20:53 | 23.64731 | 7.32469 | 38922 ft | 496 kts | 181° |
| 2026-05-05 20:53 | 23.57861 | 7.33195 | 38923 ft | 496 kts | 181° |
| 2026-05-05 20:54 | 23.50978 | 7.33924 | 38917 ft | 499 kts | 180° |
| 2026-05-05 20:54 | 23.44108 | 7.34839 | 38906 ft | 501 kts | 179° |
| 2026-05-05 20:55 | 23.37194 | 7.35871 | 38908 ft | 502 kts | 178° |
| 2026-05-05 20:55 | 23.30275 | 7.36899 | 38903 ft | 502 kts | 179° |
| 2026-05-05 20:56 | 23.23352 | 7.37908 | 38897 ft | 502 kts | 179° |
| 2026-05-05 20:56 | 23.16418 | 7.38906 | 38895 ft | 503 kts | 179° |
| 2026-05-05 20:57 | 23.10598 | 7.39742 | 38899 ft | 503 kts | 179° |
| 2026-05-05 20:57 | 23.03700 | 7.40733 | 38892 ft | 503 kts | 179° |
| 2026-05-05 20:58 | 22.96751 | 7.41731 | 38891 ft | 504 kts | 179° |
| 2026-05-05 20:58 | 22.89801 | 7.42727 | 38884 ft | 505 kts | 179° |
| 2026-05-05 20:59 | 22.82808 | 7.43727 | 38884 ft | 508 kts | 179° |
| 2026-05-05 20:59 | 22.75784 | 7.44733 | 38873 ft | 509 kts | 179° |
| 2026-05-05 21:00 | 22.68764 | 7.45739 | 38878 ft | 509 kts | 179° |
| 2026-05-05 21:00 | 22.61737 | 7.46744 | 38869 ft | 509 kts | 179° |
| 2026-05-05 21:01 | 22.54706 | 7.47746 | 38867 ft | 511 kts | 179° |
| 2026-05-05 21:01 | 22.47639 | 7.48752 | 38863 ft | 513 kts | 178° |
| 2026-05-05 21:02 | 22.40565 | 7.49761 | 38856 ft | 513 kts | 179° |
| 2026-05-05 21:02 | 22.33491 | 7.50769 | 38856 ft | 512 kts | 178° |
| 2026-05-05 21:03 | 22.26426 | 7.51774 | 38844 ft | 513 kts | 179° |
| 2026-05-05 21:03 | 22.19344 | 7.52778 | 38851 ft | 514 kts | 179° |
| 2026-05-05 21:04 | 22.12249 | 7.53784 | 38842 ft | 514 kts | 179° |
| 2026-05-05 21:04 | 22.05164 | 7.54789 | 38843 ft | 514 kts | 179° |
| 2026-05-05 21:05 | 21.98118 | 7.55785 | 38837 ft | 514 kts | 179° |
| 2026-05-05 21:05 | 21.91031 | 7.56787 | 38837 ft | 514 kts | 179° |
| 2026-05-05 21:06 | 21.83929 | 7.57790 | 38832 ft | 515 kts | 179° |
| 2026-05-05 21:06 | 21.76828 | 7.58792 | 38833 ft | 515 kts | 179° |
| 2026-05-05 21:07 | 21.69721 | 7.59795 | 38833 ft | 515 kts | 179° |
| 2026-05-05 21:07 | 21.62616 | 7.60796 | 38833 ft | 515 kts | 179° |
| 2026-05-05 21:08 | 21.55493 | 7.61797 | 38832 ft | 518 kts | 179° |
| 2026-05-05 21:08 | 21.48331 | 7.62802 | 38945 ft | 520 kts | 179° |
| 2026-05-05 21:09 | 21.44745 | 7.63306 | 39171 ft | 519 kts | 179° |
| 2026-05-05 21:09 | 21.41168 | 7.63810 | 39402 ft | 518 kts | 179° |
| 2026-05-05 21:09 | 21.37597 | 7.64312 | 39623 ft | 517 kts | 179° |
| 2026-05-05 21:09 | 21.34030 | 7.64812 | 39821 ft | 517 kts | 179° |
| 2026-05-05 21:10 | 21.26899 | 7.65811 | 39834 ft | 516 kts | 179° |
| 2026-05-05 21:10 | 21.19771 | 7.66809 | 39834 ft | 516 kts | 179° |
| 2026-05-05 21:11 | 21.12649 | 7.67805 | 39834 ft | 516 kts | 179° |
| 2026-05-05 21:11 | 21.05522 | 7.68801 | 39828 ft | 516 kts | 179° |
| 2026-05-05 21:12 | 20.98395 | 7.69796 | 39828 ft | 516 kts | 179° |
| 2026-05-05 21:12 | 20.91267 | 7.70579 | 39830 ft | 514 kts | 182° |
| 2026-05-05 21:13 | 20.84128 | 7.71121 | 39821 ft | 514 kts | 182° |
| 2026-05-05 21:13 | 20.76993 | 7.71645 | 39828 ft | 515 kts | 182° |
| 2026-05-05 21:14 | 20.69850 | 7.72201 | 39829 ft | 515 kts | 182° |
| 2026-05-05 21:14 | 20.62706 | 7.72774 | 39816 ft | 515 kts | 182° |
| 2026-05-05 21:15 | 20.55553 | 7.73351 | 39826 ft | 516 kts | 182° |
| 2026-05-05 21:15 | 20.48394 | 7.73928 | 39823 ft | 517 kts | 182° |
| 2026-05-05 21:16 | 20.41224 | 7.74505 | 39831 ft | 516 kts | 182° |
| 2026-05-05 21:16 | 20.34060 | 7.75081 | 39830 ft | 516 kts | 182° |
| 2026-05-05 21:17 | 20.26894 | 7.75655 | 39824 ft | 517 kts | 182° |
| 2026-05-05 21:17 | 20.19707 | 7.76229 | 39831 ft | 519 kts | 182° |
| 2026-05-05 21:18 | 20.12504 | 7.76806 | 39831 ft | 519 kts | 182° |
| 2026-05-05 21:18 | 20.05300 | 7.77383 | 39831 ft | 519 kts | 182° |
| 2026-05-05 21:19 | 19.98101 | 7.77958 | 39831 ft | 519 kts | 182° |
| 2026-05-05 21:19 | 19.90893 | 7.78534 | 39828 ft | 520 kts | 182° |
| 2026-05-05 21:20 | 19.83676 | 7.79108 | 39830 ft | 520 kts | 182° |
| 2026-05-05 21:20 | 19.76500 | 7.79681 | 39830 ft | 520 kts | 182° |
| 2026-05-05 21:21 | 19.69281 | 7.80256 | 39823 ft | 520 kts | 182° |
| 2026-05-05 21:21 | 19.62067 | 7.80829 | 39791 ft | 520 kts | 182° |
| 2026-05-05 21:22 | 19.54839 | 7.81402 | 39824 ft | 521 kts | 182° |
| 2026-05-05 21:22 | 19.47617 | 7.81980 | 39819 ft | 521 kts | 182° |
| 2026-05-05 21:23 | 19.40388 | 7.82576 | 39810 ft | 521 kts | 182° |
| 2026-05-05 21:23 | 19.33156 | 7.83175 | 39817 ft | 521 kts | 182° |
| 2026-05-05 21:24 | 19.25928 | 7.83773 | 39813 ft | 521 kts | 182° |
| 2026-05-05 21:24 | 19.18694 | 7.84369 | 39816 ft | 522 kts | 182° |
| 2026-05-05 21:25 | 19.11454 | 7.84966 | 39816 ft | 522 kts | 182° |
| 2026-05-05 21:25 | 19.04215 | 7.85562 | 39809 ft | 522 kts | 182° |
| 2026-05-05 21:26 | 18.96971 | 7.86158 | 39807 ft | 522 kts | 182° |
| 2026-05-05 21:26 | 18.89727 | 7.86753 | 39806 ft | 522 kts | 182° |
| 2026-05-05 21:27 | 18.82481 | 7.87347 | 39807 ft | 522 kts | 182° |
| 2026-05-05 21:27 | 18.75229 | 7.87943 | 39806 ft | 522 kts | 182° |
| 2026-05-05 21:28 | 18.67981 | 7.88536 | 39809 ft | 523 kts | 182° |
| 2026-05-05 21:28 | 18.60733 | 7.89129 | 39790 ft | 523 kts | 182° |
| 2026-05-05 21:29 | 18.53481 | 7.89720 | 39811 ft | 523 kts | 182° |
| 2026-05-05 21:29 | 18.46228 | 7.90313 | 39819 ft | 523 kts | 182° |
| 2026-05-05 21:30 | 18.38978 | 7.90905 | 39815 ft | 523 kts | 182° |
| 2026-05-05 21:30 | 18.31716 | 7.91498 | 39821 ft | 523 kts | 182° |
| 2026-05-05 21:31 | 18.24463 | 7.92089 | 39811 ft | 523 kts | 182° |
| 2026-05-05 21:31 | 18.17254 | 7.92676 | 39820 ft | 523 kts | 182° |
| 2026-05-05 21:32 | 18.09950 | 7.93271 | 39821 ft | 523 kts | 182° |
| 2026-05-05 21:32 | 18.02741 | 7.93857 | 39820 ft | 523 kts | 182° |
| 2026-05-05 21:33 | 17.95481 | 7.94447 | 39822 ft | 523 kts | 182° |
| 2026-05-05 21:33 | 17.88231 | 7.95035 | 39824 ft | 523 kts | 182° |
| 2026-05-05 21:34 | 17.80971 | 7.95625 | 39824 ft | 523 kts | 182° |
| 2026-05-05 21:34 | 17.73721 | 7.96212 | 39823 ft | 523 kts | 182° |
| 2026-05-05 21:35 | 17.66466 | 7.96800 | 39826 ft | 523 kts | 182° |
| 2026-05-05 21:35 | 17.59208 | 7.97387 | 39826 ft | 523 kts | 182° |
| 2026-05-05 21:36 | 17.51950 | 7.97974 | 39825 ft | 523 kts | 181° |
| 2026-05-05 21:36 | 17.44693 | 7.98561 | 39826 ft | 523 kts | 182° |
| 2026-05-05 21:37 | 17.37436 | 7.99146 | 39829 ft | 523 kts | 181° |
| 2026-05-05 21:37 | 17.30186 | 7.99730 | 39824 ft | 523 kts | 182° |
| 2026-05-05 21:38 | 17.22926 | 8.00315 | 39800 ft | 523 kts | 181° |
| 2026-05-05 21:38 | 17.15677 | 8.00900 | 39822 ft | 522 kts | 181° |
| 2026-05-05 21:39 | 17.08438 | 8.01483 | 39822 ft | 522 kts | 181° |
| 2026-05-05 21:39 | 17.01204 | 8.02064 | 39814 ft | 522 kts | 181° |
| 2026-05-05 21:40 | 16.94014 | 8.02672 | 39816 ft | 522 kts | 181° |
| 2026-05-05 21:40 | 16.86774 | 8.03370 | 39805 ft | 522 kts | 180° |
| 2026-05-05 21:41 | 16.79539 | 8.04084 | 39806 ft | 522 kts | 180° |
| 2026-05-05 21:41 | 16.72309 | 8.04788 | 39813 ft | 522 kts | 180° |
| 2026-05-05 21:42 | 16.65081 | 8.05485 | 39812 ft | 521 kts | 180° |
| 2026-05-05 21:42 | 16.57858 | 8.06178 | 39812 ft | 521 kts | 180° |
| 2026-05-05 21:43 | 16.50637 | 8.06872 | 39808 ft | 521 kts | 180° |
| 2026-05-05 21:43 | 16.43415 | 8.07566 | 39809 ft | 521 kts | 180° |
| 2026-05-05 21:44 | 16.37417 | 8.08143 | 39812 ft | 521 kts | 180° |
| 2026-05-05 21:44 | 16.30195 | 8.08835 | 39816 ft | 521 kts | 180° |
| 2026-05-05 21:45 | 16.22985 | 8.09526 | 39816 ft | 521 kts | 180° |
| 2026-05-05 21:45 | 16.15767 | 8.10217 | 39823 ft | 520 kts | 180° |
| 2026-05-05 21:46 | 16.08567 | 8.10907 | 39825 ft | 519 kts | 180° |
| 2026-05-05 21:46 | 16.01374 | 8.11596 | 39815 ft | 519 kts | 180° |
| 2026-05-05 21:47 | 15.94186 | 8.12282 | 39818 ft | 519 kts | 180° |
| 2026-05-05 21:47 | 15.86997 | 8.12967 | 39814 ft | 519 kts | 180° |
| 2026-05-05 21:48 | 15.79808 | 8.13653 | 39817 ft | 519 kts | 180° |
| 2026-05-05 21:48 | 15.72627 | 8.14337 | 39812 ft | 518 kts | 180° |
| 2026-05-05 21:49 | 15.65442 | 8.15021 | 39819 ft | 518 kts | 180° |
| 2026-05-05 21:49 | 15.58258 | 8.15705 | 39825 ft | 518 kts | 180° |
| 2026-05-05 21:50 | 15.51123 | 8.16384 | 39826 ft | 518 kts | 180° |
| 2026-05-05 21:50 | 15.43941 | 8.17066 | 39815 ft | 518 kts | 180° |
| 2026-05-05 21:51 | 15.36752 | 8.17749 | 39807 ft | 518 kts | 180° |
| 2026-05-05 21:51 | 15.29573 | 8.18431 | 39806 ft | 518 kts | 180° |
| 2026-05-05 21:52 | 15.18795 | 8.19454 | 39817 ft | 518 kts | 180° |
| 2026-05-05 21:53 | 15.11611 | 8.20134 | 39806 ft | 518 kts | 179° |
| 2026-05-05 21:53 | 15.04433 | 8.20815 | 39812 ft | 517 kts | 179° |
| 2026-05-05 21:54 | 14.97275 | 8.21495 | 39811 ft | 517 kts | 179° |
| 2026-05-05 21:54 | 14.90116 | 8.22175 | 39811 ft | 517 kts | 179° |
| 2026-05-05 21:55 | 14.82952 | 8.22855 | 39814 ft | 517 kts | 179° |
| 2026-05-05 21:55 | 14.75797 | 8.23534 | 39803 ft | 516 kts | 179° |
| 2026-05-05 21:56 | 14.68650 | 8.24213 | 39815 ft | 515 kts | 179° |
| 2026-05-05 21:56 | 14.61568 | 8.24885 | 39814 ft | 514 kts | 179° |
| 2026-05-05 21:57 | 14.54438 | 8.25560 | 39808 ft | 514 kts | 179° |
| 2026-05-05 21:57 | 14.47309 | 8.26234 | 39815 ft | 514 kts | 179° |
| 2026-05-05 21:58 | 14.40176 | 8.26909 | 39816 ft | 515 kts | 179° |
| 2026-05-05 21:58 | 14.33047 | 8.27583 | 39815 ft | 514 kts | 179° |
| 2026-05-05 21:59 | 14.25919 | 8.28256 | 39812 ft | 515 kts | 179° |
| 2026-05-05 21:59 | 14.18791 | 8.28928 | 39821 ft | 514 kts | 179° |
| 2026-05-05 22:00 | 14.11657 | 8.29601 | 39820 ft | 514 kts | 179° |
| 2026-05-05 22:00 | 14.04527 | 8.30272 | 39823 ft | 514 kts | 179° |
| 2026-05-05 22:01 | 13.97409 | 8.30944 | 39823 ft | 513 kts | 179° |
| 2026-05-05 22:01 | 13.90293 | 8.31614 | 39817 ft | 513 kts | 179° |
| 2026-05-05 22:02 | 13.83184 | 8.32283 | 39819 ft | 513 kts | 179° |
| 2026-05-05 22:02 | 13.76077 | 8.32950 | 39818 ft | 513 kts | 179° |
| 2026-05-05 22:03 | 13.68971 | 8.33617 | 39814 ft | 513 kts | 179° |
| 2026-05-05 22:03 | 13.61880 | 8.34281 | 39819 ft | 511 kts | 179° |
| 2026-05-05 22:04 | 13.54800 | 8.34944 | 39823 ft | 511 kts | 179° |
| 2026-05-05 22:04 | 13.47719 | 8.35606 | 39820 ft | 511 kts | 179° |
| 2026-05-05 22:05 | 13.40632 | 8.36268 | 39824 ft | 511 kts | 179° |
| 2026-05-05 22:05 | 13.33546 | 8.36930 | 39813 ft | 511 kts | 178° |
| 2026-05-05 22:06 | 13.26486 | 8.37590 | 39827 ft | 508 kts | 178° |
| 2026-05-05 22:06 | 13.19445 | 8.38248 | 39826 ft | 508 kts | 178° |
| 2026-05-05 22:07 | 13.12454 | 8.38900 | 39824 ft | 508 kts | 178° |
| 2026-05-05 22:07 | 13.05412 | 8.39566 | 39832 ft | 508 kts | 178° |
| 2026-05-05 22:08 | 12.98383 | 8.40264 | 39816 ft | 508 kts | 178° |
| 2026-05-05 22:08 | 12.91348 | 8.40968 | 39832 ft | 507 kts | 178° |
| 2026-05-05 22:09 | 12.84327 | 8.41667 | 39829 ft | 507 kts | 178° |
| 2026-05-05 22:09 | 12.77302 | 8.42365 | 39828 ft | 507 kts | 178° |
| 2026-05-05 22:10 | 12.70281 | 8.43060 | 39832 ft | 507 kts | 178° |
| 2026-05-05 22:10 | 12.63254 | 8.43755 | 39825 ft | 507 kts | 177° |
| 2026-05-05 22:11 | 12.56239 | 8.44448 | 39837 ft | 507 kts | 177° |
| 2026-05-05 22:11 | 12.49226 | 8.45141 | 39825 ft | 506 kts | 177° |
| 2026-05-05 22:12 | 12.42214 | 8.45834 | 39825 ft | 506 kts | 177° |
| 2026-05-05 22:12 | 12.35199 | 8.46526 | 39826 ft | 506 kts | 177° |
| 2026-05-05 22:13 | 12.28189 | 8.47217 | 39824 ft | 506 kts | 177° |
| 2026-05-05 22:13 | 12.21230 | 8.47903 | 39833 ft | 506 kts | 176° |
| 2026-05-05 22:14 | 12.14223 | 8.48593 | 39833 ft | 505 kts | 176° |
| 2026-05-05 22:14 | 12.07312 | 8.48835 | 39832 ft | 501 kts | 188° |
| 2026-05-05 22:15 | 12.00664 | 8.47067 | 39834 ft | 491 kts | 208° |
| 2026-05-05 22:15 | 11.94871 | 8.43478 | 39836 ft | 486 kts | 218° |
| 2026-05-05 22:16 | 11.89364 | 8.39470 | 39843 ft | 486 kts | 219° |
| 2026-05-05 22:16 | 11.83895 | 8.35417 | 39842 ft | 485 kts | 219° |
| 2026-05-05 22:17 | 11.78407 | 8.31397 | 39843 ft | 486 kts | 218° |
| 2026-05-05 22:17 | 11.72895 | 8.27397 | 39851 ft | 486 kts | 218° |
| 2026-05-05 22:18 | 11.67371 | 8.23401 | 39849 ft | 486 kts | 218° |
| 2026-05-05 22:18 | 11.61849 | 8.19408 | 39867 ft | 486 kts | 218° |
| 2026-05-05 22:19 | 11.56328 | 8.15417 | 39868 ft | 486 kts | 218° |
| 2026-05-05 22:19 | 11.50814 | 8.11431 | 39868 ft | 485 kts | 218° |
| 2026-05-05 22:20 | 11.45316 | 8.07459 | 39873 ft | 484 kts | 218° |
| 2026-05-05 22:20 | 11.39819 | 8.03489 | 39881 ft | 484 kts | 218° |
| 2026-05-05 22:21 | 11.34323 | 7.99521 | 39890 ft | 484 kts | 218° |
| 2026-05-05 22:21 | 11.28824 | 7.95552 | 39884 ft | 484 kts | 218° |
| 2026-05-05 22:22 | 11.23341 | 7.91574 | 39892 ft | 484 kts | 218° |
| 2026-05-05 22:22 | 11.17883 | 7.87560 | 39897 ft | 484 kts | 218° |
| 2026-05-05 22:23 | 11.12451 | 7.83557 | 39904 ft | 485 kts | 218° |
| 2026-05-05 22:23 | 11.09717 | 7.81545 | 39793 ft | 484 kts | 218° |
| 2026-05-05 22:23 | 11.06988 | 7.79539 | 39564 ft | 485 kts | 218° |
| 2026-05-05 22:23 | 11.04248 | 7.77525 | 39092 ft | 488 kts | 218° |
| 2026-05-05 22:24 | 11.01490 | 7.75499 | 38460 ft | 490 kts | 218° |
| 2026-05-05 22:24 | 10.98720 | 7.73466 | 37815 ft | 491 kts | 218° |
| 2026-05-05 22:24 | 10.95949 | 7.71432 | 37238 ft | 493 kts | 218° |
| 2026-05-05 22:24 | 10.93155 | 7.69383 | 36679 ft | 496 kts | 218° |
| 2026-05-05 22:25 | 10.90347 | 7.67323 | 36059 ft | 498 kts | 218° |
| 2026-05-05 22:25 | 10.87529 | 7.65257 | 35426 ft | 500 kts | 218° |
| 2026-05-05 22:25 | 10.84702 | 7.63186 | 34744 ft | 502 kts | 218° |
| 2026-05-05 22:25 | 10.81870 | 7.61111 | 34002 ft | 503 kts | 218° |
| 2026-05-05 22:26 | 10.79039 | 7.59038 | 33075 ft | 499 kts | 218° |
| 2026-05-05 22:26 | 10.76245 | 7.56995 | 32225 ft | 488 kts | 218° |
| 2026-05-05 22:26 | 10.73523 | 7.55004 | 31411 ft | 478 kts | 218° |
| 2026-05-05 22:26 | 10.70865 | 7.53059 | 30829 ft | 463 kts | 219° |
| 2026-05-05 22:27 | 10.68267 | 7.51157 | 30285 ft | 459 kts | 219° |
| 2026-05-05 22:27 | 10.65677 | 7.49257 | 29679 ft | 460 kts | 219° |
| 2026-05-05 22:27 | 10.63075 | 7.47348 | 29071 ft | 461 kts | 218° |
| 2026-05-05 22:27 | 10.60322 | 7.45676 | 28478 ft | 463 kts | 206° |
| 2026-05-05 22:28 | 10.57254 | 7.44697 | 27865 ft | 464 kts | 192° |
| 2026-05-05 22:28 | 10.54062 | 7.44215 | 27273 ft | 463 kts | 187° |
| 2026-05-05 22:28 | 10.50867 | 7.43853 | 26693 ft | 461 kts | 186° |
| 2026-05-05 22:28 | 10.47687 | 7.43515 | 26098 ft | 458 kts | 186° |
| 2026-05-05 22:29 | 10.44524 | 7.43184 | 25542 ft | 456 kts | 185° |
| 2026-05-05 22:29 | 10.41382 | 7.42856 | 24962 ft | 453 kts | 185° |
| 2026-05-05 22:29 | 10.38258 | 7.42528 | 24387 ft | 450 kts | 185° |
| 2026-05-05 22:29 | 10.35190 | 7.42206 | 23816 ft | 447 kts | 185° |
| 2026-05-05 22:30 | 10.32065 | 7.41878 | 23189 ft | 445 kts | 185° |
| 2026-05-05 22:30 | 10.29041 | 7.41561 | 22590 ft | 440 kts | 184° |
| 2026-05-05 22:30 | 10.26014 | 7.41243 | 22036 ft | 435 kts | 184° |
| 2026-05-05 22:30 | 10.23023 | 7.40929 | 21486 ft | 429 kts | 184° |
| 2026-05-05 22:31 | 10.20070 | 7.40619 | 20953 ft | 424 kts | 184° |
| 2026-05-05 22:31 | 10.17153 | 7.40313 | 20413 ft | 420 kts | 184° |
| 2026-05-05 22:31 | 10.14258 | 7.40009 | 19894 ft | 416 kts | 184° |
| 2026-05-05 22:31 | 10.11379 | 7.39708 | 19375 ft | 416 kts | 184° |
| 2026-05-05 22:32 | 10.08501 | 7.39407 | 18848 ft | 415 kts | 184° |
| 2026-05-05 22:32 | 10.05636 | 7.39106 | 18327 ft | 413 kts | 183° |
| 2026-05-05 22:32 | 10.02791 | 7.38808 | 17752 ft | 409 kts | 183° |
| 2026-05-05 22:32 | 9.99974 | 7.38512 | 17217 ft | 406 kts | 183° |
| 2026-05-05 22:33 | 9.97171 | 7.38219 | 16711 ft | 404 kts | 183° |
| 2026-05-05 22:33 | 9.94379 | 7.37927 | 16199 ft | 402 kts | 183° |
| 2026-05-05 22:33 | 9.91607 | 7.37636 | 15688 ft | 400 kts | 183° |
| 2026-05-05 22:33 | 9.88841 | 7.37347 | 15177 ft | 398 kts | 182° |
| 2026-05-05 22:34 | 9.87015 | 7.37232 | 14834 ft | 395 kts | 176° |
| 2026-05-05 22:34 | 9.84308 | 7.37520 | 14279 ft | 389 kts | 166° |
| 2026-05-05 22:34 | 9.81661 | 7.38028 | 13770 ft | 386 kts | 164° |
| 2026-05-05 22:34 | 9.79049 | 7.38563 | 13341 ft | 378 kts | 164° |
| 2026-05-05 22:35 | 9.76515 | 7.39080 | 13110 ft | 364 kts | 164° |
| 2026-05-05 22:35 | 9.74072 | 7.39575 | 12859 ft | 352 kts | 164° |
| 2026-05-05 22:35 | 9.71710 | 7.40051 | 12508 ft | 341 kts | 164° |
| 2026-05-05 22:35 | 9.69415 | 7.40512 | 12140 ft | 331 kts | 164° |
| 2026-05-05 22:36 | 9.67181 | 7.40959 | 11771 ft | 323 kts | 164° |
| 2026-05-05 22:36 | 9.65001 | 7.41396 | 11411 ft | 316 kts | 165° |
| 2026-05-05 22:36 | 9.62854 | 7.41826 | 11058 ft | 314 kts | 165° |
| 2026-05-05 22:36 | 9.60715 | 7.42255 | 10704 ft | 312 kts | 165° |
| 2026-05-05 22:37 | 9.58590 | 7.42681 | 10364 ft | 310 kts | 165° |
| 2026-05-05 22:37 | 9.56478 | 7.43104 | 10025 ft | 309 kts | 165° |
| 2026-05-05 22:37 | 9.54376 | 7.43524 | 9686 ft | 307 kts | 165° |
| 2026-05-05 22:37 | 9.52285 | 7.43942 | 9327 ft | 305 kts | 165° |
| 2026-05-05 22:38 | 9.50208 | 7.44357 | 9004 ft | 304 kts | 166° |
| 2026-05-05 22:38 | 9.48139 | 7.44747 | 8682 ft | 302 kts | 170° |
| 2026-05-05 22:38 | 9.46038 | 7.44784 | 8374 ft | 302 kts | 182° |
| 2026-05-05 22:38 | 9.43950 | 7.44597 | 8054 ft | 300 kts | 184° |
| 2026-05-05 22:39 | 9.41884 | 7.44374 | 7729 ft | 297 kts | 185° |
| 2026-05-05 22:39 | 9.39837 | 7.44151 | 7397 ft | 295 kts | 185° |
| 2026-05-05 22:39 | 9.37802 | 7.43933 | 7082 ft | 293 kts | 185° |
| 2026-05-05 22:39 | 9.35783 | 7.43719 | 6759 ft | 290 kts | 185° |
| 2026-05-05 22:40 | 9.33788 | 7.43509 | 6438 ft | 287 kts | 185° |
| 2026-05-05 22:40 | 9.31816 | 7.43303 | 6079 ft | 282 kts | 186° |
| 2026-05-05 22:40 | 9.29899 | 7.43103 | 5729 ft | 270 kts | 186° |
| 2026-05-05 22:40 | 9.28094 | 7.42914 | 5474 ft | 252 kts | 186° |
| 2026-05-05 22:41 | 9.26401 | 7.42736 | 5207 ft | 238 kts | 186° |
| 2026-05-05 22:41 | 9.24794 | 7.42562 | 4951 ft | 225 kts | 187° |
| 2026-05-05 22:41 | 9.23319 | 7.42189 | 4694 ft | 213 kts | 201° |
| 2026-05-05 22:41 | 9.22067 | 7.41512 | 4587 ft | 199 kts | 212° |
| 2026-05-05 22:42 | 9.20949 | 7.40722 | 4516 ft | 187 kts | 214° |
| 2026-05-05 22:42 | 9.19929 | 7.39987 | 4441 ft | 179 kts | 213° |
| 2026-05-05 22:42 | 9.18917 | 7.39264 | 4364 ft | 177 kts | 213° |
| 2026-05-05 22:42 | 9.17925 | 7.38560 | 4262 ft | 170 kts | 213° |
| 2026-05-05 22:43 | 9.16972 | 7.37886 | 4157 ft | 165 kts | 213° |
| 2026-05-05 22:43 | 9.16033 | 7.37222 | 4055 ft | 164 kts | 213° |
| 2026-05-05 22:43 | 9.15097 | 7.36559 | 3956 ft | 165 kts | 213° |
| 2026-05-05 22:43 | 9.14185 | 7.35910 | 3847 ft | 153 kts | 212° |
| 2026-05-05 22:44 | 9.13352 | 7.35316 | 3688 ft | 141 kts | 212° |
| 2026-05-05 22:44 | 9.12571 | 7.34762 | 3539 ft | 135 kts | 210° |
| 2026-05-05 22:44 | 9.11793 | 7.34225 | 3357 ft | 136 kts | 211° |
| 2026-05-05 22:44 | 9.11042 | 7.33647 | 3175 ft | 136 kts | 214° |
| 2026-05-05 22:45 | 9.10296 | 7.33060 | 3015 ft | 135 kts | 212° |
| 2026-05-05 22:45 | 9.09525 | 7.32516 | 2838 ft | 135 kts | 210° |
| 2026-05-05 22:45 | 9.08742 | 7.31994 | 2653 ft | 134 kts | 210° |
| 2026-05-05 22:45 | 9.07979 | 7.31455 | 2481 ft | 134 kts | 211° |
| 2026-05-05 22:46 | 9.07201 | 7.30933 | 2338 ft | 134 kts | 211° |
| 2026-05-05 22:46 | 9.06447 | 7.30381 | 2158 ft | 134 kts | 213° |
| 2026-05-05 22:46 | 9.05684 | 7.29846 | 1972 ft | 133 kts | 212° |
| 2026-05-05 22:46 | 9.04920 | 7.29316 | 1805 ft | 133 kts | 212° |
| 2026-05-05 22:47 | 9.04168 | 7.28775 | 1623 ft | 133 kts | 213° |
| 2026-05-05 22:47 | 9.03411 | 7.28244 | 1454 ft | 133 kts | 214° |
| 2026-05-05 22:47 | 9.02649 | 7.27709 | 1298 ft | 134 kts | 214° |
| 2026-05-05 22:47 | 9.01887 | 7.27170 | 1150 ft | 134 kts | 213° |
| 2026-05-05 22:48 | 9.01219 | 7.26698 | 1116 ft | 91 kts | 215° |
| 2026-05-05 22:48 | 9.00820 | 7.26416 | 1110 ft | 59 kts | 215° |
| 2026-05-05 22:48 | 9.00510 | 7.26197 | 1111 ft | 51 kts | 215° |
| 2026-05-05 22:48 | 9.00331 | 7.26070 | 1108 ft | 17 kts | 214° |
| 2026-05-05 22:49 | 9.00224 | 7.26024 | 1108 ft | 17 kts | 188° |
| 2026-05-05 22:49 | 9.00118 | 7.26035 | 1104 ft | 13 kts | 144° |
| 2026-05-05 22:49 | 9.00107 | 7.26113 | 1107 ft | 11 kts | 52° |
| 2026-05-05 22:49 | 9.00170 | 7.26162 | 1105 ft | 12 kts | 34° |
| 2026-05-05 22:50 | 9.00244 | 7.26209 | 1109 ft | 12 kts | 34° |
| 2026-05-05 22:50 | 9.00308 | 7.26259 | 1107 ft | 12 kts | 36° |
| 2026-05-05 22:50 | 9.00378 | 7.26309 | 1111 ft | 13 kts | 35° |
| 2026-05-05 22:50 | 9.00458 | 7.26365 | 1106 ft | 15 kts | 35° |
| 2026-05-05 22:51 | 9.00543 | 7.26425 | 1109 ft | 12 kts | 35° |
| 2026-05-05 22:51 | 9.00598 | 7.26474 | 1110 ft | 9 kts | 64° |
| 2026-05-05 22:51 | 9.00591 | 7.26528 | 1113 ft | 6 kts | 116° |
| 2026-05-05 22:51 | 9.00570 | 7.26555 | 1114 ft | 4 kts | 130° |
| 2026-05-05 22:52 | 9.00551 | 7.26576 | 1114 ft | 5 kts | 135° |
| 2026-05-05 22:52 | 9.00513 | 7.26605 | 1115 ft | 9 kts | 147° |
| 2026-05-05 22:52 | 9.00460 | 7.26638 | 1116 ft | 8 kts | 143° |
| 2026-05-05 22:52 | 9.00446 | 7.26684 | 1134 ft | 6 kts | 78° |
| 2026-05-05 22:53 | 9.00461 | 7.26727 | 1135 ft | 5 kts | 69° |
| 2026-05-05 22:53 | 9.00490 | 7.26749 | 1133 ft | 6 kts | 20° |
| 2026-05-05 22:53 | 9.00534 | 7.26755 | 1131 ft | 6 kts | 359° |
| 2026-05-05 22:53 | 9.00566 | 7.26755 | 1129 ft | 3 kts | 0° |
| 2026-05-05 22:54 | 9.00580 | 7.26755 | 1129 ft | 2 kts | 0° |
| 2026-05-05 22:54 | 9.00586 | 7.26755 | 1129 ft | 0 kts | 0° |